LQSA/SJJ METAR and TAF weather

Enter ICAO airport designator
Station Type Date Time Source
LQSA METAR 2019/08/20 09:30 UTC NOAA

LQSA 200930Z VRB02KT CAVOK 27/15 Q1021 NOSIG


Station Type Date Time Source
LQSA Decoded METAR 2019/08/20 09:30 UTC NOAA

Sarajevo, Bosnia and Herzegovina (LQSA) 43-49N 018-20E 510M
Aug 20, 2019 - 05:30 AM EDT / 2019.08.20 0930 UTC
Wind: Variable at 2 MPH (2 KT):0
Visibility: greater than 7 mile(s):0
Temperature: 80 F (27 C)
Dew Point: 59 F (15 C)
Relative Humidity: 47%
Pressure (altimeter): 30.15 in. Hg (1021 hPa)
ob: LQSA 200930Z VRB02KT CAVOK 27/15 Q1021 NOSIG
cycle: 9

Station Type Date Time Source
LQSA TAF 2019/08/20 06:06 UTC NOAA

TAF TAF LQSA 200500Z 2006/2106 VRB02KT CAVOK TX34/2014Z TN14/2103Z

Example: see airport list